sensor_id;sensor_type;location;lat;lon;timestamp;temperature;humidity
7240;DHT22;3661;53.288;10.458;2024-02-04T00:01:00;7.10;99.90
7240;DHT22;3661;53.288;10.458;2024-02-04T00:03:33;7.10;99.90
7240;DHT22;3661;53.288;10.458;2024-02-04T00:06:05;7.10;99.90
7240;DHT22;3661;53.288;10.458;2024-02-04T00:08:38;7.10;99.90
7240;DHT22;3661;53.288;10.458;2024-02-04T00:11:10;7.10;99.90
7240;DHT22;3661;53.288;10.458;2024-02-04T00:13:43;7.10;99.90
7240;DHT22;3661;53.288;10.458;2024-02-04T00:16:15;7.10;99.90
7240;DHT22;3661;53.288;10.458;2024-02-04T00:18:47;7.00;99.90
7240;DHT22;3661;53.288;10.458;2024-02-04T00:21:19;7.00;99.90
7240;DHT22;3661;53.288;10.458;2024-02-04T00:23:52;7.00;99.90
7240;DHT22;3661;53.288;10.458;2024-02-04T00:26:24;7.00;99.90
7240;DHT22;3661;53.288;10.458;2024-02-04T00:28:56;6.90;99.90
7240;DHT22;3661;53.288;10.458;2024-02-04T00:31:29;6.90;99.90
7240;DHT22;3661;53.288;10.458;2024-02-04T00:34:01;6.90;99.90
7240;DHT22;3661;53.288;10.458;2024-02-04T00:36:33;6.90;99.90
7240;DHT22;3661;53.288;10.458;2024-02-04T00:39:06;6.80;99.90
7240;DHT22;3661;53.288;10.458;2024-02-04T00:41:39;6.80;99.90
7240;DHT22;3661;53.288;10.458;2024-02-04T00:44:11;6.80;99.90
7240;DHT22;3661;53.288;10.458;2024-02-04T00:46:43;6.80;99.90
7240;DHT22;3661;53.288;10.458;2024-02-04T00:49:15;6.80;99.90
7240;DHT22;3661;53.288;10.458;2024-02-04T00:51:47;6.70;99.90
7240;DHT22;3661;53.288;10.458;2024-02-04T00:54:21;6.70;99.90
7240;DHT22;3661;53.288;10.458;2024-02-04T00:56:53;6.70;99.90
7240;DHT22;3661;53.288;10.458;2024-02-04T00:59:25;6.70;99.90
7240;DHT22;3661;53.288;10.458;2024-02-04T01:01:57;6.70;99.90
7240;DHT22;3661;53.288;10.458;2024-02-04T01:04:30;6.70;99.90
7240;DHT22;3661;53.288;10.458;2024-02-04T01:07:02;6.60;99.90
7240;DHT22;3661;53.288;10.458;2024-02-04T01:09:36;6.60;99.90
7240;DHT22;3661;53.288;10.458;2024-02-04T01:12:08;6.60;99.90
7240;DHT22;3661;53.288;10.458;2024-02-04T01:14:41;6.60;99.90
7240;DHT22;3661;53.288;10.458;2024-02-04T01:17:13;6.60;99.90
7240;DHT22;3661;53.288;10.458;2024-02-04T01:19:45;6.60;99.90
7240;DHT22;3661;53.288;10.458;2024-02-04T01:22:17;6.50;99.90
7240;DHT22;3661;53.288;10.458;2024-02-04T01:24:53;6.50;99.90
7240;DHT22;3661;53.288;10.458;2024-02-04T01:27:25;6.50;99.90
7240;DHT22;3661;53.288;10.458;2024-02-04T01:29:57;6.50;99.90
7240;DHT22;3661;53.288;10.458;2024-02-04T01:32:29;6.50;99.90
7240;DHT22;3661;53.288;10.458;2024-02-04T01:35:01;6.40;99.90
7240;DHT22;3661;53.288;10.458;2024-02-04T01:37:33;6.40;99.90
7240;DHT22;3661;53.288;10.458;2024-02-04T01:40:09;6.40;99.90
7240;DHT22;3661;53.288;10.458;2024-02-04T01:42:41;6.40;99.90
7240;DHT22;3661;53.288;10.458;2024-02-04T01:45:14;6.40;99.90
7240;DHT22;3661;53.288;10.458;2024-02-04T01:47:46;6.40;99.90
7240;DHT22;3661;53.288;10.458;2024-02-04T01:50:18;6.40;99.90
7240;DHT22;3661;53.288;10.458;2024-02-04T01:52:51;6.40;99.90
7240;DHT22;3661;53.288;10.458;2024-02-04T01:55:25;6.30;99.90
7240;DHT22;3661;53.288;10.458;2024-02-04T01:57:57;6.30;99.90
7240;DHT22;3661;53.288;10.458;2024-02-04T02:00:30;6.30;99.90
7240;DHT22;3661;53.288;10.458;2024-02-04T02:03:04;6.30;99.90
7240;DHT22;3661;53.288;10.458;2024-02-04T02:05:37;6.30;99.90
7240;DHT22;3661;53.288;10.458;2024-02-04T02:08:10;6.30;99.90
7240;DHT22;3661;53.288;10.458;2024-02-04T02:10:46;6.30;99.90
7240;DHT22;3661;53.288;10.458;2024-02-04T02:13:23;6.30;99.90
7240;DHT22;3661;53.288;10.458;2024-02-04T02:16:04;6.30;99.90
7240;DHT22;3661;53.288;10.458;2024-02-04T02:18:42;6.30;99.90
7240;DHT22;3661;53.288;10.458;2024-02-04T02:21:30;6.30;99.90
7240;DHT22;3661;53.288;10.458;2024-02-04T02:24:12;6.30;99.90
7240;DHT22;3661;53.288;10.458;2024-02-04T02:26:47;6.30;99.90
7240;DHT22;3661;53.288;10.458;2024-02-04T02:29:19;6.30;99.90
7240;DHT22;3661;53.288;10.458;2024-02-04T02:31:51;6.30;99.90
7240;DHT22;3661;53.288;10.458;2024-02-04T02:34:23;6.30;99.90
7240;DHT22;3661;53.288;10.458;2024-02-04T02:36:59;6.30;99.90
7240;DHT22;3661;53.288;10.458;2024-02-04T02:39:37;6.30;99.90
7240;DHT22;3661;53.288;10.458;2024-02-04T02:42:13;6.30;99.90
7240;DHT22;3661;53.288;10.458;2024-02-04T02:44:47;6.30;99.90
7240;DHT22;3661;53.288;10.458;2024-02-04T02:47:20;6.30;99.90
7240;DHT22;3661;53.288;10.458;2024-02-04T02:49:54;6.30;99.90
7240;DHT22;3661;53.288;10.458;2024-02-04T02:52:26;6.30;99.90
7240;DHT22;3661;53.288;10.458;2024-02-04T02:54:58;6.30;99.90
7240;DHT22;3661;53.288;10.458;2024-02-04T02:57:32;6.30;99.90
7240;DHT22;3661;53.288;10.458;2024-02-04T03:00:05;6.30;99.90
7240;DHT22;3661;53.288;10.458;2024-02-04T03:02:38;6.30;99.90
7240;DHT22;3661;53.288;10.458;2024-02-04T03:05:11;6.30;99.90
7240;DHT22;3661;53.288;10.458;2024-02-04T03:07:43;6.30;99.90
7240;DHT22;3661;53.288;10.458;2024-02-04T03:10:15;6.30;99.90
7240;DHT22;3661;53.288;10.458;2024-02-04T03:12:51;6.30;99.90
7240;DHT22;3661;53.288;10.458;2024-02-04T03:15:23;6.30;99.90
7240;DHT22;3661;53.288;10.458;2024-02-04T03:17:55;6.30;99.90
7240;DHT22;3661;53.288;10.458;2024-02-04T03:20:27;6.30;99.90
7240;DHT22;3661;53.288;10.458;2024-02-04T03:23:00;6.30;99.90
7240;DHT22;3661;53.288;10.458;2024-02-04T03:25:32;6.20;99.90
7240;DHT22;3661;53.288;10.458;2024-02-04T03:28:05;6.20;99.90
7240;DHT22;3661;53.288;10.458;2024-02-04T03:30:37;6.20;99.90
7240;DHT22;3661;53.288;10.458;2024-02-04T03:33:09;6.20;99.90
7240;DHT22;3661;53.288;10.458;2024-02-04T03:35:42;6.20;99.90
7240;DHT22;3661;53.288;10.458;2024-02-04T03:38:14;6.10;99.90
7240;DHT22;3661;53.288;10.458;2024-02-04T03:40:46;6.10;99.90
7240;DHT22;3661;53.288;10.458;2024-02-04T03:43:21;6.10;99.90
7240;DHT22;3661;53.288;10.458;2024-02-04T03:45:53;6.10;99.90
7240;DHT22;3661;53.288;10.458;2024-02-04T03:48:25;6.10;99.90
7240;DHT22;3661;53.288;10.458;2024-02-04T03:50:57;6.10;99.90
7240;DHT22;3661;53.288;10.458;2024-02-04T03:53:29;6.10;99.90
7240;DHT22;3661;53.288;10.458;2024-02-04T03:56:01;6.10;99.90
7240;DHT22;3661;53.288;10.458;2024-02-04T03:58:36;6.00;99.90
7240;DHT22;3661;53.288;10.458;2024-02-04T04:01:10;6.00;99.90
7240;DHT22;3661;53.288;10.458;2024-02-04T04:03:42;6.00;99.90
7240;DHT22;3661;53.288;10.458;2024-02-04T04:06:14;6.00;99.90
7240;DHT22;3661;53.288;10.458;2024-02-04T04:08:46;6.00;99.90
7240;DHT22;3661;53.288;10.458;2024-02-04T04:11:18;6.00;99.90
7240;DHT22;3661;53.288;10.458;2024-02-04T04:13:52;6.00;99.90
7240;DHT22;3661;53.288;10.458;2024-02-04T04:16:24;5.90;99.90
7240;DHT22;3661;53.288;10.458;2024-02-04T04:18:56;5.90;99.90
7240;DHT22;3661;53.288;10.458;2024-02-04T04:21:29;5.90;99.90
7240;DHT22;3661;53.288;10.458;2024-02-04T04:24:01;5.90;99.90
7240;DHT22;3661;53.288;10.458;2024-02-04T04:26:33;5.90;99.90
7240;DHT22;3661;53.288;10.458;2024-02-04T04:29:07;5.90;99.90
7240;DHT22;3661;53.288;10.458;2024-02-04T04:31:39;5.90;99.90
7240;DHT22;3661;53.288;10.458;2024-02-04T04:34:11;5.90;99.90
7240;DHT22;3661;53.288;10.458;2024-02-04T04:36:44;5.90;99.90
7240;DHT22;3661;53.288;10.458;2024-02-04T04:39:16;5.80;99.90
7240;DHT22;3661;53.288;10.458;2024-02-04T04:41:48;5.80;99.90
7240;DHT22;3661;53.288;10.458;2024-02-04T04:44:21;5.80;99.90
7240;DHT22;3661;53.288;10.458;2024-02-04T04:46:53;5.80;99.90
7240;DHT22;3661;53.288;10.458;2024-02-04T04:49:25;5.80;99.90
7240;DHT22;3661;53.288;10.458;2024-02-04T04:51:57;5.80;99.90
7240;DHT22;3661;53.288;10.458;2024-02-04T04:54:29;5.80;99.90
7240;DHT22;3661;53.288;10.458;2024-02-04T04:57:01;5.80;99.90
7240;DHT22;3661;53.288;10.458;2024-02-04T04:59:35;5.70;99.90
7240;DHT22;3661;53.288;10.458;2024-02-04T05:02:08;5.70;99.90
7240;DHT22;3661;53.288;10.458;2024-02-04T05:04:43;5.70;99.90
7240;DHT22;3661;53.288;10.458;2024-02-04T05:07:15;5.70;99.90
7240;DHT22;3661;53.288;10.458;2024-02-04T05:09:47;5.70;99.90
7240;DHT22;3661;53.288;10.458;2024-02-04T05:12:19;5.70;99.90
7240;DHT22;3661;53.288;10.458;2024-02-04T05:14:53;5.70;99.90
7240;DHT22;3661;53.288;10.458;2024-02-04T05:17:25;5.70;99.90
7240;DHT22;3661;53.288;10.458;2024-02-04T05:19:58;5.70;99.90
7240;DHT22;3661;53.288;10.458;2024-02-04T05:22:30;5.70;99.90
7240;DHT22;3661;53.288;10.458;2024-02-04T05:25:02;5.70;99.90
7240;DHT22;3661;53.288;10.458;2024-02-04T05:27:36;5.70;99.90
7240;DHT22;3661;53.288;10.458;2024-02-04T05:30:11;5.60;99.90
7240;DHT22;3661;53.288;10.458;2024-02-04T05:32:43;5.60;99.90
7240;DHT22;3661;53.288;10.458;2024-02-04T05:35:16;5.60;99.90
7240;DHT22;3661;53.288;10.458;2024-02-04T05:37:48;5.60;99.90
7240;DHT22;3661;53.288;10.458;2024-02-04T05:40:20;5.60;99.90
7240;DHT22;3661;53.288;10.458;2024-02-04T05:42:53;5.60;99.90
7240;DHT22;3661;53.288;10.458;2024-02-04T05:45:27;5.60;99.90
7240;DHT22;3661;53.288;10.458;2024-02-04T05:47:59;5.60;99.90
7240;DHT22;3661;53.288;10.458;2024-02-04T05:50:31;5.60;99.90
7240;DHT22;3661;53.288;10.458;2024-02-04T05:53:03;5.60;99.90
7240;DHT22;3661;53.288;10.458;2024-02-04T05:55:39;5.60;99.90
7240;DHT22;3661;53.288;10.458;2024-02-04T05:58:11;5.60;99.90
7240;DHT22;3661;53.288;10.458;2024-02-04T06:00:46;5.60;99.90
7240;DHT22;3661;53.288;10.458;2024-02-04T06:03:18;5.60;99.90
7240;DHT22;3661;53.288;10.458;2024-02-04T06:05:50;5.60;99.90
7240;DHT22;3661;53.288;10.458;2024-02-04T06:08:22;5.60;99.90
7240;DHT22;3661;53.288;10.458;2024-02-04T06:10:54;5.60;99.90
7240;DHT22;3661;53.288;10.458;2024-02-04T06:13:26;5.60;99.90
7240;DHT22;3661;53.288;10.458;2024-02-04T06:15:59;5.60;99.90
7240;DHT22;3661;53.288;10.458;2024-02-04T06:18:31;5.60;99.90
7240;DHT22;3661;53.288;10.458;2024-02-04T06:21:03;5.60;99.90
7240;DHT22;3661;53.288;10.458;2024-02-04T06:23:35;5.50;99.90
7240;DHT22;3661;53.288;10.458;2024-02-04T06:26:09;5.60;99.90
7240;DHT22;3661;53.288;10.458;2024-02-04T06:28:41;5.50;99.90
7240;DHT22;3661;53.288;10.458;2024-02-04T06:31:18;5.50;99.90
7240;DHT22;3661;53.288;10.458;2024-02-04T06:33:50;5.60;99.90
7240;DHT22;3661;53.288;10.458;2024-02-04T06:36:22;5.50;99.90
7240;DHT22;3661;53.288;10.458;2024-02-04T06:38:56;5.60;99.90
7240;DHT22;3661;53.288;10.458;2024-02-04T06:41:28;5.60;99.90
7240;DHT22;3661;53.288;10.458;2024-02-04T06:44:00;5.60;99.90
7240;DHT22;3661;53.288;10.458;2024-02-04T06:46:34;5.50;99.90
7240;DHT22;3661;53.288;10.458;2024-02-04T06:49:06;5.50;99.90
7240;DHT22;3661;53.288;10.458;2024-02-04T06:51:38;5.60;99.90
7240;DHT22;3661;53.288;10.458;2024-02-04T06:54:10;5.60;99.90
7240;DHT22;3661;53.288;10.458;2024-02-04T06:56:42;5.50;99.90
7240;DHT22;3661;53.288;10.458;2024-02-04T06:59:14;5.60;99.90
7240;DHT22;3661;53.288;10.458;2024-02-04T07:01:48;5.60;99.90
7240;DHT22;3661;53.288;10.458;2024-02-04T07:04:21;5.60;99.90
7240;DHT22;3661;53.288;10.458;2024-02-04T07:06:54;5.60;99.90
7240;DHT22;3661;53.288;10.458;2024-02-04T07:09:26;5.60;99.90
7240;DHT22;3661;53.288;10.458;2024-02-04T07:11:59;5.60;99.90
7240;DHT22;3661;53.288;10.458;2024-02-04T07:14:31;5.60;99.90
7240;DHT22;3661;53.288;10.458;2024-02-04T07:17:04;5.60;99.90
7240;DHT22;3661;53.288;10.458;2024-02-04T07:19:36;5.60;99.90
7240;DHT22;3661;53.288;10.458;2024-02-04T07:22:08;5.60;99.90
7240;DHT22;3661;53.288;10.458;2024-02-04T07:24:40;5.60;99.90
7240;DHT22;3661;53.288;10.458;2024-02-04T07:27:12;5.60;99.90
7240;DHT22;3661;53.288;10.458;2024-02-04T07:29:44;5.60;99.90
7240;DHT22;3661;53.288;10.458;2024-02-04T07:32:19;5.60;99.90
7240;DHT22;3661;53.288;10.458;2024-02-04T07:34:51;5.60;99.90
7240;DHT22;3661;53.288;10.458;2024-02-04T07:37:23;5.60;99.90
7240;DHT22;3661;53.288;10.458;2024-02-04T07:39:55;5.60;99.90
7240;DHT22;3661;53.288;10.458;2024-02-04T07:42:27;5.60;99.90
7240;DHT22;3661;53.288;10.458;2024-02-04T07:45:00;5.60;99.90
7240;DHT22;3661;53.288;10.458;2024-02-04T07:47:40;5.60;99.90
7240;DHT22;3661;53.288;10.458;2024-02-04T07:50:12;5.60;99.90
7240;DHT22;3661;53.288;10.458;2024-02-04T07:52:45;5.60;99.90
7240;DHT22;3661;53.288;10.458;2024-02-04T07:55:17;5.60;99.90
7240;DHT22;3661;53.288;10.458;2024-02-04T07:57:50;5.60;99.90
7240;DHT22;3661;53.288;10.458;2024-02-04T08:00:22;5.60;99.90
7240;DHT22;3661;53.288;10.458;2024-02-04T08:02:56;5.60;99.90
7240;DHT22;3661;53.288;10.458;2024-02-04T08:05:28;5.60;99.90
7240;DHT22;3661;53.288;10.458;2024-02-04T08:08:02;5.60;99.90
7240;DHT22;3661;53.288;10.458;2024-02-04T08:10:34;5.60;99.90
7240;DHT22;3661;53.288;10.458;2024-02-04T08:13:06;5.60;99.90
7240;DHT22;3661;53.288;10.458;2024-02-04T08:15:38;5.70;99.90
7240;DHT22;3661;53.288;10.458;2024-02-04T08:18:12;5.70;99.90
7240;DHT22;3661;53.288;10.458;2024-02-04T08:20:44;5.70;99.90
7240;DHT22;3661;53.288;10.458;2024-02-04T08:23:16;5.70;99.90
7240;DHT22;3661;53.288;10.458;2024-02-04T08:25:48;5.80;99.90
7240;DHT22;3661;53.288;10.458;2024-02-04T08:28:22;5.80;99.90
7240;DHT22;3661;53.288;10.458;2024-02-04T08:30:54;5.80;99.90
7240;DHT22;3661;53.288;10.458;2024-02-04T08:33:28;5.80;99.90
7240;DHT22;3661;53.288;10.458;2024-02-04T08:36:00;5.90;99.90
7240;DHT22;3661;53.288;10.458;2024-02-04T08:38:35;5.90;99.90
7240;DHT22;3661;53.288;10.458;2024-02-04T08:41:07;5.90;99.90
7240;DHT22;3661;53.288;10.458;2024-02-04T08:43:39;6.00;99.90
7240;DHT22;3661;53.288;10.458;2024-02-04T08:46:11;6.00;99.90
7240;DHT22;3661;53.288;10.458;2024-02-04T08:48:48;6.00;99.90
7240;DHT22;3661;53.288;10.458;2024-02-04T08:51:20;6.00;99.90
7240;DHT22;3661;53.288;10.458;2024-02-04T08:53:52;6.10;99.90
7240;DHT22;3661;53.288;10.458;2024-02-04T08:56:26;6.10;99.90
7240;DHT22;3661;53.288;10.458;2024-02-04T08:58:58;6.10;99.90
7240;DHT22;3661;53.288;10.458;2024-02-04T09:01:32;6.20;99.90
7240;DHT22;3661;53.288;10.458;2024-02-04T09:04:06;6.20;99.90
7240;DHT22;3661;53.288;10.458;2024-02-04T09:06:38;6.20;99.90
7240;DHT22;3661;53.288;10.458;2024-02-04T09:09:10;6.30;99.90
7240;DHT22;3661;53.288;10.458;2024-02-04T09:11:43;6.30;99.90
7240;DHT22;3661;53.288;10.458;2024-02-04T09:14:15;6.30;99.90
7240;DHT22;3661;53.288;10.458;2024-02-04T09:16:47;6.40;99.90
7240;DHT22;3661;53.288;10.458;2024-02-04T09:19:20;6.40;99.90
7240;DHT22;3661;53.288;10.458;2024-02-04T09:21:52;6.50;99.90
7240;DHT22;3661;53.288;10.458;2024-02-04T09:24:24;6.50;99.90
7240;DHT22;3661;53.288;10.458;2024-02-04T09:26:57;6.60;99.90
7240;DHT22;3661;53.288;10.458;2024-02-04T09:29:29;6.60;99.90
7240;DHT22;3661;53.288;10.458;2024-02-04T09:32:01;6.60;99.90
7240;DHT22;3661;53.288;10.458;2024-02-04T09:34:34;6.70;99.90
7240;DHT22;3661;53.288;10.458;2024-02-04T09:37:06;6.70;99.90
7240;DHT22;3661;53.288;10.458;2024-02-04T09:39:38;6.80;99.90
7240;DHT22;3661;53.288;10.458;2024-02-04T09:42:23;6.80;99.90
7240;DHT22;3661;53.288;10.458;2024-02-04T09:44:55;6.80;99.90
7240;DHT22;3661;53.288;10.458;2024-02-04T09:47:28;6.90;99.90
7240;DHT22;3661;53.288;10.458;2024-02-04T09:50:02;6.90;99.90
7240;DHT22;3661;53.288;10.458;2024-02-04T09:52:37;6.90;99.90
7240;DHT22;3661;53.288;10.458;2024-02-04T09:55:13;7.00;99.90
7240;DHT22;3661;53.288;10.458;2024-02-04T09:57:46;7.00;99.90
7240;DHT22;3661;53.288;10.458;2024-02-04T10:00:19;7.00;99.90
7240;DHT22;3661;53.288;10.458;2024-02-04T10:02:52;7.10;99.90
7240;DHT22;3661;53.288;10.458;2024-02-04T10:05:26;7.10;99.90
7240;DHT22;3661;53.288;10.458;2024-02-04T10:07:58;7.10;99.90
7240;DHT22;3661;53.288;10.458;2024-02-04T10:10:30;7.10;99.90
7240;DHT22;3661;53.288;10.458;2024-02-04T10:13:06;7.10;99.90
7240;DHT22;3661;53.288;10.458;2024-02-04T10:15:38;7.10;99.90
7240;DHT22;3661;53.288;10.458;2024-02-04T10:18:10;7.20;99.90
7240;DHT22;3661;53.288;10.458;2024-02-04T10:20:44;7.20;99.90
7240;DHT22;3661;53.288;10.458;2024-02-04T10:23:16;7.20;99.90
7240;DHT22;3661;53.288;10.458;2024-02-04T10:25:57;7.20;99.90
7240;DHT22;3661;53.288;10.458;2024-02-04T10:28:30;7.20;99.90
7240;DHT22;3661;53.288;10.458;2024-02-04T10:31:03;7.20;99.90
7240;DHT22;3661;53.288;10.458;2024-02-04T10:33:35;7.20;99.90
7240;DHT22;3661;53.288;10.458;2024-02-04T10:36:09;7.20;99.90
7240;DHT22;3661;53.288;10.458;2024-02-04T10:38:41;7.20;99.90
7240;DHT22;3661;53.288;10.458;2024-02-04T10:41:15;7.30;99.90
7240;DHT22;3661;53.288;10.458;2024-02-04T10:43:47;7.30;99.90
7240;DHT22;3661;53.288;10.458;2024-02-04T10:46:20;7.30;99.90
7240;DHT22;3661;53.288;10.458;2024-02-04T10:48:56;7.30;99.90
7240;DHT22;3661;53.288;10.458;2024-02-04T10:51:31;7.30;99.90
7240;DHT22;3661;53.288;10.458;2024-02-04T10:54:08;7.30;99.90
7240;DHT22;3661;53.288;10.458;2024-02-04T10:56:43;7.40;99.90
7240;DHT22;3661;53.288;10.458;2024-02-04T10:59:16;7.30;99.90
7240;DHT22;3661;53.288;10.458;2024-02-04T11:01:50;7.40;99.90
7240;DHT22;3661;53.288;10.458;2024-02-04T11:04:23;7.40;99.90
7240;DHT22;3661;53.288;10.458;2024-02-04T11:06:57;7.40;99.90
7240;DHT22;3661;53.288;10.458;2024-02-04T11:09:29;7.40;99.90
7240;DHT22;3661;53.288;10.458;2024-02-04T11:12:06;7.50;99.90
7240;DHT22;3661;53.288;10.458;2024-02-04T11:14:44;7.50;99.90
7240;DHT22;3661;53.288;10.458;2024-02-04T11:17:32;7.50;99.90
7240;DHT22;3661;53.288;10.458;2024-02-04T11:20:16;7.50;99.90
7240;DHT22;3661;53.288;10.458;2024-02-04T11:23:07;7.50;99.90
7240;DHT22;3661;53.288;10.458;2024-02-04T11:25:44;7.60;99.90
7240;DHT22;3661;53.288;10.458;2024-02-04T11:28:18;7.60;99.90
7240;DHT22;3661;53.288;10.458;2024-02-04T11:30:50;7.60;99.90
7240;DHT22;3661;53.288;10.458;2024-02-04T11:33:23;7.60;99.90
7240;DHT22;3661;53.288;10.458;2024-02-04T11:36:00;7.60;99.90
7240;DHT22;3661;53.288;10.458;2024-02-04T11:38:36;7.60;99.90
7240;DHT22;3661;53.288;10.458;2024-02-04T11:41:08;7.70;99.90
7240;DHT22;3661;53.288;10.458;2024-02-04T11:43:40;7.70;99.90
7240;DHT22;3661;53.288;10.458;2024-02-04T11:46:17;7.70;99.90
7240;DHT22;3661;53.288;10.458;2024-02-04T11:48:53;7.70;99.90
7240;DHT22;3661;53.288;10.458;2024-02-04T11:51:25;7.70;99.90
7240;DHT22;3661;53.288;10.458;2024-02-04T11:53:59;7.70;99.90
7240;DHT22;3661;53.288;10.458;2024-02-04T11:56:32;7.70;99.90
7240;DHT22;3661;53.288;10.458;2024-02-04T11:59:07;7.80;99.90
7240;DHT22;3661;53.288;10.458;2024-02-04T12:01:40;7.80;99.90
7240;DHT22;3661;53.288;10.458;2024-02-04T12:04:15;7.80;99.90
7240;DHT22;3661;53.288;10.458;2024-02-04T12:06:48;7.80;99.90
7240;DHT22;3661;53.288;10.458;2024-02-04T12:09:23;7.90;99.90
7240;DHT22;3661;53.288;10.458;2024-02-04T12:11:56;7.90;99.90
7240;DHT22;3661;53.288;10.458;2024-02-04T12:14:28;7.90;99.90
7240;DHT22;3661;53.288;10.458;2024-02-04T12:17:07;7.90;99.90
7240;DHT22;3661;53.288;10.458;2024-02-04T12:19:40;8.00;99.90
7240;DHT22;3661;53.288;10.458;2024-02-04T12:22:14;8.00;99.90
7240;DHT22;3661;53.288;10.458;2024-02-04T12:24:47;8.00;99.90
7240;DHT22;3661;53.288;10.458;2024-02-04T12:27:20;8.00;99.90
7240;DHT22;3661;53.288;10.458;2024-02-04T12:29:53;8.00;99.90
7240;DHT22;3661;53.288;10.458;2024-02-04T12:32:29;8.00;99.90
7240;DHT22;3661;53.288;10.458;2024-02-04T12:35:01;8.10;99.90
7240;DHT22;3661;53.288;10.458;2024-02-04T12:37:33;8.10;99.90
7240;DHT22;3661;53.288;10.458;2024-02-04T12:40:08;8.10;99.90
7240;DHT22;3661;53.288;10.458;2024-02-04T12:42:42;8.10;99.90
7240;DHT22;3661;53.288;10.458;2024-02-04T12:45:14;8.10;99.90
7240;DHT22;3661;53.288;10.458;2024-02-04T12:47:49;8.20;99.90
7240;DHT22;3661;53.288;10.458;2024-02-04T12:50:21;8.20;99.90
7240;DHT22;3661;53.288;10.458;2024-02-04T12:53:03;8.20;99.90
7240;DHT22;3661;53.288;10.458;2024-02-04T12:55:37;8.20;99.90
7240;DHT22;3661;53.288;10.458;2024-02-04T12:58:11;8.20;99.90
7240;DHT22;3661;53.288;10.458;2024-02-04T13:00:47;8.20;99.90
7240;DHT22;3661;53.288;10.458;2024-02-04T13:03:19;8.30;99.90
7240;DHT22;3661;53.288;10.458;2024-02-04T13:05:57;8.30;99.90
7240;DHT22;3661;53.288;10.458;2024-02-04T13:08:30;8.30;99.90
7240;DHT22;3661;53.288;10.458;2024-02-04T13:11:03;8.30;99.90
7240;DHT22;3661;53.288;10.458;2024-02-04T13:13:35;8.40;99.90
7240;DHT22;3661;53.288;10.458;2024-02-04T13:16:08;8.40;99.90
7240;DHT22;3661;53.288;10.458;2024-02-04T13:18:40;8.40;99.90
7240;DHT22;3661;53.288;10.458;2024-02-04T13:21:12;8.40;99.90
7240;DHT22;3661;53.288;10.458;2024-02-04T13:23:44;8.40;99.90
7240;DHT22;3661;53.288;10.458;2024-02-04T13:26:17;8.40;99.90
7240;DHT22;3661;53.288;10.458;2024-02-04T13:28:49;8.50;99.90
7240;DHT22;3661;53.288;10.458;2024-02-04T13:31:21;8.50;99.90
7240;DHT22;3661;53.288;10.458;2024-02-04T13:33:53;8.50;99.90
7240;DHT22;3661;53.288;10.458;2024-02-04T13:36:26;8.50;99.90
7240;DHT22;3661;53.288;10.458;2024-02-04T13:38:58;8.50;99.90
7240;DHT22;3661;53.288;10.458;2024-02-04T13:41:31;8.50;99.90
7240;DHT22;3661;53.288;10.458;2024-02-04T13:44:03;8.50;99.90
7240;DHT22;3661;53.288;10.458;2024-02-04T13:46:36;8.50;99.90
7240;DHT22;3661;53.288;10.458;2024-02-04T13:49:11;8.50;99.90
7240;DHT22;3661;53.288;10.458;2024-02-04T13:51:43;8.50;99.90
7240;DHT22;3661;53.288;10.458;2024-02-04T13:54:15;8.50;99.90
7240;DHT22;3661;53.288;10.458;2024-02-04T13:56:49;8.40;99.90
7240;DHT22;3661;53.288;10.458;2024-02-04T13:59:21;8.50;99.90
7240;DHT22;3661;53.288;10.458;2024-02-04T14:01:53;8.40;99.90
7240;DHT22;3661;53.288;10.458;2024-02-04T14:04:25;8.40;99.90
7240;DHT22;3661;53.288;10.458;2024-02-04T14:06:57;8.40;99.90
7240;DHT22;3661;53.288;10.458;2024-02-04T14:09:29;8.40;99.90
7240;DHT22;3661;53.288;10.458;2024-02-04T14:12:04;8.40;99.90
7240;DHT22;3661;53.288;10.458;2024-02-04T14:14:36;8.50;99.90
7240;DHT22;3661;53.288;10.458;2024-02-04T14:17:08;8.50;99.90
7240;DHT22;3661;53.288;10.458;2024-02-04T14:19:41;8.50;99.90
7240;DHT22;3661;53.288;10.458;2024-02-04T14:22:16;8.50;99.90
7240;DHT22;3661;53.288;10.458;2024-02-04T14:24:49;8.50;99.90
7240;DHT22;3661;53.288;10.458;2024-02-04T14:27:23;8.50;99.90
7240;DHT22;3661;53.288;10.458;2024-02-04T14:29:55;8.50;99.90
7240;DHT22;3661;53.288;10.458;2024-02-04T14:32:27;8.50;99.90
7240;DHT22;3661;53.288;10.458;2024-02-04T14:35:05;8.50;99.90
7240;DHT22;3661;53.288;10.458;2024-02-04T14:37:40;8.50;99.90
7240;DHT22;3661;53.288;10.458;2024-02-04T14:40:14;8.50;99.90
7240;DHT22;3661;53.288;10.458;2024-02-04T14:42:47;8.50;99.90
7240;DHT22;3661;53.288;10.458;2024-02-04T14:45:19;8.40;99.90
7240;DHT22;3661;53.288;10.458;2024-02-04T14:47:51;8.50;99.90
7240;DHT22;3661;53.288;10.458;2024-02-04T14:50:23;8.50;99.90
7240;DHT22;3661;53.288;10.458;2024-02-04T14:52:55;8.40;99.90
7240;DHT22;3661;53.288;10.458;2024-02-04T14:55:28;8.40;99.90
7240;DHT22;3661;53.288;10.458;2024-02-04T14:58:01;8.40;99.90
7240;DHT22;3661;53.288;10.458;2024-02-04T15:00:33;8.40;99.90
7240;DHT22;3661;53.288;10.458;2024-02-04T15:03:05;8.40;99.90
7240;DHT22;3661;53.288;10.458;2024-02-04T15:05:37;8.40;99.90
7240;DHT22;3661;53.288;10.458;2024-02-04T15:08:10;8.40;99.90
7240;DHT22;3661;53.288;10.458;2024-02-04T15:10:42;8.40;99.90
7240;DHT22;3661;53.288;10.458;2024-02-04T15:13:16;8.40;99.90
7240;DHT22;3661;53.288;10.458;2024-02-04T15:15:48;8.40;99.90
7240;DHT22;3661;53.288;10.458;2024-02-04T15:18:21;8.40;99.90
7240;DHT22;3661;53.288;10.458;2024-02-04T15:20:53;8.40;99.90
7240;DHT22;3661;53.288;10.458;2024-02-04T15:23:26;8.40;99.90
7240;DHT22;3661;53.288;10.458;2024-02-04T15:26:01;8.40;99.90
7240;DHT22;3661;53.288;10.458;2024-02-04T15:28:36;8.30;99.90
7240;DHT22;3661;53.288;10.458;2024-02-04T15:31:10;8.30;99.90
7240;DHT22;3661;53.288;10.458;2024-02-04T15:33:43;8.30;99.90
7240;DHT22;3661;53.288;10.458;2024-02-04T15:36:15;8.30;99.90
7240;DHT22;3661;53.288;10.458;2024-02-04T15:38:47;8.30;99.90
7240;DHT22;3661;53.288;10.458;2024-02-04T15:41:19;8.30;99.90
7240;DHT22;3661;53.288;10.458;2024-02-04T15:44:00;8.20;99.90
7240;DHT22;3661;53.288;10.458;2024-02-04T15:46:32;8.20;99.90
7240;DHT22;3661;53.288;10.458;2024-02-04T15:49:06;8.20;99.90
7240;DHT22;3661;53.288;10.458;2024-02-04T15:51:43;8.20;99.90
7240;DHT22;3661;53.288;10.458;2024-02-04T15:54:15;8.20;99.90
7240;DHT22;3661;53.288;10.458;2024-02-04T15:56:53;8.10;99.90
7240;DHT22;3661;53.288;10.458;2024-02-04T15:59:27;8.10;99.90
7240;DHT22;3661;53.288;10.458;2024-02-04T16:02:01;8.10;99.90
7240;DHT22;3661;53.288;10.458;2024-02-04T16:04:35;8.10;99.90
7240;DHT22;3661;53.288;10.458;2024-02-04T16:07:08;8.00;99.90
7240;DHT22;3661;53.288;10.458;2024-02-04T16:09:44;8.00;99.90
7240;DHT22;3661;53.288;10.458;2024-02-04T16:12:20;8.00;99.90
7240;DHT22;3661;53.288;10.458;2024-02-04T16:14:56;8.00;99.90
7240;DHT22;3661;53.288;10.458;2024-02-04T16:17:32;7.90;99.90
7240;DHT22;3661;53.288;10.458;2024-02-04T16:20:05;7.90;99.90
7240;DHT22;3661;53.288;10.458;2024-02-04T16:22:37;7.90;99.90
7240;DHT22;3661;53.288;10.458;2024-02-04T16:25:09;7.90;99.90
7240;DHT22;3661;53.288;10.458;2024-02-04T16:27:47;7.90;99.90
7240;DHT22;3661;53.288;10.458;2024-02-04T16:30:26;7.90;99.90
7240;DHT22;3661;53.288;10.458;2024-02-04T16:32:58;7.80;99.90
7240;DHT22;3661;53.288;10.458;2024-02-04T16:35:30;7.80;99.90
7240;DHT22;3661;53.288;10.458;2024-02-04T16:38:02;7.80;99.90
7240;DHT22;3661;53.288;10.458;2024-02-04T16:40:34;7.80;99.90